Time,TemperatureF,DewpointF,PressureIn,WindDirection,WindDirectionDegrees,WindSpeedMPH,WindSpeedGustMPH,Humidity,HourlyPrecipIn,Conditions,Clouds,dailyrainin,SoftwareType,DateUTC
2013-02-02 00:01:00,51.0,36.7,30.20,ENE,68,1.0,-999.0,58,0.00,,,0.00,Wunderground v.1.15,2013-02-02 08:01:00,
2013-02-02 00:06:00,51.0,36.7,30.20,ENE,68,1.0,-999.0,58,0.00,,,0.00,Wunderground v.1.15,2013-02-02 08:06:00,
2013-02-02 00:11:00,51.0,36.7,30.20,ENE,68,1.0,-999.0,58,0.00,,,0.00,Wunderground v.1.15,2013-02-02 08:11:00,
2013-02-02 00:16:00,51.0,36.7,30.20,ENE,68,1.0,-999.0,58,0.00,,,0.00,Wunderground v.1.15,2013-02-02 08:16:00,
2013-02-02 00:21:00,51.0,36.7,30.20,ENE,68,1.0,-999.0,58,0.00,,,0.00,Wunderground v.1.15,2013-02-02 08:21:00,
2013-02-02 00:26:00,51.0,36.7,30.20,ENE,68,1.0,-999.0,58,0.00,,,0.00,Wunderground v.1.15,2013-02-02 08:26:00,
2013-02-02 00:31:00,51.0,36.7,30.20,ENE,68,1.0,-999.0,58,0.00,,,0.00,Wunderground v.1.15,2013-02-02 08:31:00,
2013-02-02 00:36:00,51.0,36.7,30.20,ENE,68,1.0,-999.0,58,0.00,,,0.00,Wunderground v.1.15,2013-02-02 08:36:00,
2013-02-02 00:41:00,51.0,36.7,30.20,ENE,68,1.0,-999.0,58,0.00,,,0.00,Wunderground v.1.15,2013-02-02 08:41:00,
2013-02-02 00:46:00,50.8,37.0,30.20,ENE,68,1.0,-999.0,59,0.00,,,0.00,Wunderground v.1.15,2013-02-02 08:46:00,
2013-02-02 00:51:00,50.8,37.0,30.20,ENE,68,1.0,-999.0,59,0.00,,,0.00,Wunderground v.1.15,2013-02-02 08:51:00,
2013-02-02 00:56:00,50.8,37.0,30.20,ENE,68,1.0,-999.0,59,0.00,,,0.00,Wunderground v.1.15,2013-02-02 08:56:00,
2013-02-02 01:01:00,50.8,37.0,30.20,ENE,68,1.0,-999.0,59,0.00,,,0.00,Wunderground v.1.15,2013-02-02 09:01:00,
2013-02-02 01:06:00,50.8,37.0,30.20,ENE,68,1.0,-999.0,59,0.00,,,0.00,Wunderground v.1.15,2013-02-02 09:06:00,
2013-02-02 01:11:00,50.8,37.0,30.20,ENE,68,1.0,-999.0,59,0.00,,,0.00,Wunderground v.1.15,2013-02-02 09:11:00,
2013-02-02 01:16:00,50.9,36.6,30.21,East,90,0.0,-999.0,58,0.00,,,0.00,Wunderground v.1.15,2013-02-02 09:16:00,
2013-02-02 01:21:00,50.9,36.6,30.21,East,90,0.0,-999.0,58,0.00,,,0.00,Wunderground v.1.15,2013-02-02 09:21:00,
2013-02-02 01:26:00,50.9,36.6,30.21,East,90,0.0,-999.0,58,0.00,,,0.00,Wunderground v.1.15,2013-02-02 09:26:00,
2013-02-02 01:31:00,50.9,36.6,30.21,East,90,0.0,-999.0,58,0.00,,,0.00,Wunderground v.1.15,2013-02-02 09:31:00,
2013-02-02 01:36:00,50.9,36.6,30.21,East,90,0.0,-999.0,58,0.00,,,0.00,Wunderground v.1.15,2013-02-02 09:36:00,
2013-02-02 01:41:00,50.9,36.6,30.21,East,90,0.0,-999.0,58,0.00,,,0.00,Wunderground v.1.15,2013-02-02 09:41:00,
2013-02-02 01:46:00,49.6,37.1,30.20,East,90,1.0,-999.0,62,0.00,,,0.00,Wunderground v.1.15,2013-02-02 09:46:00,
2013-02-02 01:51:00,49.6,37.1,30.20,East,90,1.0,-999.0,62,0.00,,,0.00,Wunderground v.1.15,2013-02-02 09:51:00,
2013-02-02 01:56:00,49.6,37.1,30.20,East,90,1.0,-999.0,62,0.00,,,0.00,Wunderground v.1.15,2013-02-02 09:56:00,
2013-02-02 02:01:00,49.6,37.1,30.20,East,90,1.0,-999.0,62,0.00,,,0.00,Wunderground v.1.15,2013-02-02 10:01:00,
2013-02-02 02:06:00,49.6,37.1,30.20,East,90,1.0,-999.0,62,0.00,,,0.00,Wunderground v.1.15,2013-02-02 10:06:00,
2013-02-02 02:11:00,49.6,37.1,30.20,East,90,1.0,-999.0,62,0.00,,,0.00,Wunderground v.1.15,2013-02-02 10:11:00,
2013-02-02 02:16:00,49.5,35.8,30.20,ENE,68,1.0,-999.0,59,0.00,,,0.00,Wunderground v.1.15,2013-02-02 10:16:00,
2013-02-02 02:21:00,49.5,35.8,30.20,ENE,68,1.0,-999.0,59,0.00,,,0.00,Wunderground v.1.15,2013-02-02 10:21:00,
2013-02-02 02:26:00,49.5,35.8,30.20,ENE,68,1.0,-999.0,59,0.00,,,0.00,Wunderground v.1.15,2013-02-02 10:26:00,
2013-02-02 02:31:00,49.5,35.8,30.20,ENE,68,1.0,-999.0,59,0.00,,,0.00,Wunderground v.1.15,2013-02-02 10:31:00,
2013-02-02 02:36:00,49.5,35.8,30.20,ENE,68,1.0,-999.0,59,0.00,,,0.00,Wunderground v.1.15,2013-02-02 10:36:00,
2013-02-02 02:41:00,49.5,35.8,30.20,ENE,68,1.0,-999.0,59,0.00,,,0.00,Wunderground v.1.15,2013-02-02 10:41:00,
2013-02-02 02:46:00,50.6,35.5,30.20,East,90,1.0,-999.0,56,0.00,,,0.00,Wunderground v.1.15,2013-02-02 10:46:00,
2013-02-02 02:51:00,50.6,35.5,30.20,East,90,1.0,-999.0,56,0.00,,,0.00,Wunderground v.1.15,2013-02-02 10:51:00,
2013-02-02 02:56:00,50.6,35.5,30.20,East,90,1.0,-999.0,56,0.00,,,0.00,Wunderground v.1.15,2013-02-02 10:56:00,
2013-02-02 03:01:00,50.6,35.5,30.20,East,90,1.0,-999.0,56,0.00,,,0.00,Wunderground v.1.15,2013-02-02 11:01:00,
2013-02-02 03:06:00,50.6,35.5,30.20,East,90,1.0,-999.0,56,0.00,,,0.00,Wunderground v.1.15,2013-02-02 11:06:00,
2013-02-02 03:11:00,50.6,35.5,30.20,East,90,1.0,-999.0,56,0.00,,,0.00,Wunderground v.1.15,2013-02-02 11:11:00,
2013-02-02 03:16:00,50.8,34.3,30.20,ENE,68,1.0,-999.0,53,0.00,,,0.00,Wunderground v.1.15,2013-02-02 11:16:00,
2013-02-02 03:21:00,50.8,34.3,30.20,ENE,68,1.0,-999.0,53,0.00,,,0.00,Wunderground v.1.15,2013-02-02 11:21:00,
2013-02-02 03:26:00,50.8,34.3,30.20,ENE,68,1.0,-999.0,53,0.00,,,0.00,Wunderground v.1.15,2013-02-02 11:26:00,
2013-02-02 03:31:00,50.8,34.3,30.20,ENE,68,1.0,-999.0,53,0.00,,,0.00,Wunderground v.1.15,2013-02-02 11:31:00,
2013-02-02 03:36:00,50.8,34.3,30.20,ENE,68,1.0,-999.0,53,0.00,,,0.00,Wunderground v.1.15,2013-02-02 11:36:00,
2013-02-02 03:41:00,50.8,34.3,30.20,ENE,68,1.0,-999.0,53,0.00,,,0.00,Wunderground v.1.15,2013-02-02 11:41:00,
2013-02-02 03:46:00,50.4,33.9,30.20,NE,45,0.0,-999.0,53,0.00,,,0.00,Wunderground v.1.15,2013-02-02 11:46:00,
2013-02-02 03:51:00,50.4,33.9,30.20,NE,45,0.0,-999.0,53,0.00,,,0.00,Wunderground v.1.15,2013-02-02 11:51:00,
2013-02-02 03:56:00,50.4,33.9,30.20,NE,45,0.0,-999.0,53,0.00,,,0.00,Wunderground v.1.15,2013-02-02 11:56:00,
2013-02-02 04:01:00,50.4,33.9,30.20,NE,45,0.0,-999.0,53,0.00,,,0.00,Wunderground v.1.15,2013-02-02 12:01:00,
2013-02-02 04:06:00,50.4,33.9,30.20,NE,45,0.0,-999.0,53,0.00,,,0.00,Wunderground v.1.15,2013-02-02 12:06:00,
2013-02-02 04:11:00,50.4,33.9,30.20,NE,45,0.0,-999.0,53,0.00,,,0.00,Wunderground v.1.15,2013-02-02 12:11:00,
2013-02-02 04:16:00,49.9,34.4,30.20,ENE,68,0.0,-999.0,55,0.00,,,0.00,Wunderground v.1.15,2013-02-02 12:16:00,
2013-02-02 04:21:00,49.9,34.4,30.20,ENE,68,0.0,-999.0,55,0.00,,,0.00,Wunderground v.1.15,2013-02-02 12:21:00,
2013-02-02 04:26:00,49.9,34.4,30.20,ENE,68,0.0,-999.0,55,0.00,,,0.00,Wunderground v.1.15,2013-02-02 12:26:00,
2013-02-02 04:31:00,49.9,34.4,30.20,ENE,68,0.0,-999.0,55,0.00,,,0.00,Wunderground v.1.15,2013-02-02 12:31:00,
2013-02-02 04:36:00,49.9,34.4,30.20,ENE,68,0.0,-999.0,55,0.00,,,0.00,Wunderground v.1.15,2013-02-02 12:36:00,
2013-02-02 04:41:00,49.9,34.4,30.20,ENE,68,0.0,-999.0,55,0.00,,,0.00,Wunderground v.1.15,2013-02-02 12:41:00,
2013-02-02 04:46:00,49.3,34.3,30.19,ENE,68,1.0,-999.0,56,0.00,,,0.00,Wunderground v.1.15,2013-02-02 12:46:00,
2013-02-02 04:51:00,49.3,34.3,30.19,ENE,68,1.0,-999.0,56,0.00,,,0.00,Wunderground v.1.15,2013-02-02 12:51:00,
2013-02-02 04:56:00,49.3,34.3,30.19,ENE,68,1.0,-999.0,56,0.00,,,0.00,Wunderground v.1.15,2013-02-02 12:56:00,
2013-02-02 05:01:00,49.3,34.3,30.19,ENE,68,1.0,-999.0,56,0.00,,,0.00,Wunderground v.1.15,2013-02-02 13:01:00,
2013-02-02 05:06:00,49.3,34.3,30.19,ENE,68,1.0,-999.0,56,0.00,,,0.00,Wunderground v.1.15,2013-02-02 13:06:00,
2013-02-02 05:11:00,49.3,34.3,30.19,ENE,68,1.0,-999.0,56,0.00,,,0.00,Wunderground v.1.15,2013-02-02 13:11:00,
2013-02-02 05:16:00,49.7,34.2,30.19,ENE,68,1.0,-999.0,55,0.00,,,0.00,Wunderground v.1.15,2013-02-02 13:16:00,
2013-02-02 05:21:00,49.7,34.2,30.19,ENE,68,1.0,-999.0,55,0.00,,,0.00,Wunderground v.1.15,2013-02-02 13:21:00,
2013-02-02 05:26:00,49.7,34.2,30.19,ENE,68,1.0,-999.0,55,0.00,,,0.00,Wunderground v.1.15,2013-02-02 13:26:00,
2013-02-02 05:31:00,49.7,34.2,30.19,ENE,68,1.0,-999.0,55,0.00,,,0.00,Wunderground v.1.15,2013-02-02 13:31:00,
2013-02-02 05:36:00,49.7,34.2,30.19,ENE,68,1.0,-999.0,55,0.00,,,0.00,Wunderground v.1.15,2013-02-02 13:36:00,
2013-02-02 05:41:00,49.7,34.2,30.19,ENE,68,1.0,-999.0,55,0.00,,,0.00,Wunderground v.1.15,2013-02-02 13:41:00,
2013-02-02 05:46:00,49.7,33.2,30.19,East,90,0.0,-999.0,53,0.00,,,0.00,Wunderground v.1.15,2013-02-02 13:46:00,
2013-02-02 05:51:00,49.7,33.2,30.19,East,90,0.0,-999.0,53,0.00,,,0.00,Wunderground v.1.15,2013-02-02 13:51:00,
2013-02-02 05:56:00,49.7,33.2,30.19,East,90,0.0,-999.0,53,0.00,,,0.00,Wunderground v.1.15,2013-02-02 13:56:00,
2013-02-02 06:01:00,49.7,33.2,30.19,East,90,0.0,-999.0,53,0.00,,,0.00,Wunderground v.1.15,2013-02-02 14:01:00,
2013-02-02 06:06:00,49.7,33.2,30.19,East,90,0.0,-999.0,53,0.00,,,0.00,Wunderground v.1.15,2013-02-02 14:06:00,
2013-02-02 06:11:00,49.7,33.2,30.19,East,90,0.0,-999.0,53,0.00,,,0.00,Wunderground v.1.15,2013-02-02 14:11:00,
2013-02-02 06:16:00,50.4,32.9,30.19,East,90,1.0,-999.0,51,0.00,,,0.00,Wunderground v.1.15,2013-02-02 14:16:00,
2013-02-02 06:21:00,50.4,32.9,30.19,East,90,1.0,-999.0,51,0.00,,,0.00,Wunderground v.1.15,2013-02-02 14:21:00,
2013-02-02 06:26:00,50.4,32.9,30.19,East,90,1.0,-999.0,51,0.00,,,0.00,Wunderground v.1.15,2013-02-02 14:26:00,
2013-02-02 06:31:00,50.4,32.9,30.19,East,90,1.0,-999.0,51,0.00,,,0.00,Wunderground v.1.15,2013-02-02 14:31:00,
2013-02-02 06:36:00,50.4,32.9,30.19,East,90,1.0,-999.0,51,0.00,,,0.00,Wunderground v.1.15,2013-02-02 14:36:00,
2013-02-02 06:41:00,50.4,32.9,30.19,East,90,1.0,-999.0,51,0.00,,,0.00,Wunderground v.1.15,2013-02-02 14:41:00,
2013-02-02 06:46:00,50.2,33.2,30.20,East,90,0.0,-999.0,52,0.00,,,0.00,Wunderground v.1.15,2013-02-02 14:46:00,
2013-02-02 06:51:00,50.2,33.2,30.20,East,90,0.0,-999.0,52,0.00,,,0.00,Wunderground v.1.15,2013-02-02 14:51:00,
2013-02-02 06:56:00,50.2,33.2,30.20,East,90,0.0,-999.0,52,0.00,,,0.00,Wunderground v.1.15,2013-02-02 14:56:00,
2013-02-02 07:01:00,50.2,33.2,30.20,East,90,0.0,-999.0,52,0.00,,,0.00,Wunderground v.1.15,2013-02-02 15:01:00,
2013-02-02 07:06:00,50.2,33.2,30.20,East,90,0.0,-999.0,52,0.00,,,0.00,Wunderground v.1.15,2013-02-02 15:06:00,
2013-02-02 07:11:00,50.2,33.2,30.20,East,90,0.0,-999.0,52,0.00,,,0.00,Wunderground v.1.15,2013-02-02 15:11:00,
2013-02-02 07:16:00,48.6,33.6,30.21,ENE,68,0.0,-999.0,56,0.00,,,0.00,Wunderground v.1.15,2013-02-02 15:16:00,
2013-02-02 07:21:00,48.6,33.6,30.21,ENE,68,0.0,-999.0,56,0.00,,,0.00,Wunderground v.1.15,2013-02-02 15:21:00,
2013-02-02 07:26:00,48.6,33.6,30.21,ENE,68,0.0,-999.0,56,0.00,,,0.00,Wunderground v.1.15,2013-02-02 15:26:00,
2013-02-02 07:31:00,48.6,33.6,30.21,ENE,68,0.0,-999.0,56,0.00,,,0.00,Wunderground v.1.15,2013-02-02 15:31:00,
2013-02-02 07:36:00,48.6,33.6,30.21,ENE,68,0.0,-999.0,56,0.00,,,0.00,Wunderground v.1.15,2013-02-02 15:36:00,
2013-02-02 07:41:00,48.6,33.6,30.21,ENE,68,0.0,-999.0,56,0.00,,,0.00,Wunderground v.1.15,2013-02-02 15:41:00,
2013-02-02 07:46:00,49.5,34.0,30.21,ENE,68,1.0,-999.0,55,0.00,,,0.00,Wunderground v.1.15,2013-02-02 15:46:00,
2013-02-02 07:51:00,49.5,34.0,30.21,ENE,68,1.0,-999.0,55,0.00,,,0.00,Wunderground v.1.15,2013-02-02 15:51:00,
2013-02-02 07:56:00,49.5,34.0,30.21,ENE,68,1.0,-999.0,55,0.00,,,0.00,Wunderground v.1.15,2013-02-02 15:56:00,
2013-02-02 08:01:00,49.5,34.0,30.21,ENE,68,1.0,-999.0,55,0.00,,,0.00,Wunderground v.1.15,2013-02-02 16:01:00,
2013-02-02 08:06:00,49.5,34.0,30.21,ENE,68,1.0,-999.0,55,0.00,,,0.00,Wunderground v.1.15,2013-02-02 16:06:00,
2013-02-02 08:11:00,49.5,34.0,30.21,ENE,68,1.0,-999.0,55,0.00,,,0.00,Wunderground v.1.15,2013-02-02 16:11:00,
2013-02-02 08:16:00,49.6,34.1,30.22,East,90,1.0,-999.0,55,0.00,,,0.00,Wunderground v.1.15,2013-02-02 16:16:00,
2013-02-02 08:21:00,49.6,34.1,30.22,East,90,1.0,-999.0,55,0.00,,,0.00,Wunderground v.1.15,2013-02-02 16:21:00,
2013-02-02 08:26:00,49.6,34.1,30.22,East,90,1.0,-999.0,55,0.00,,,0.00,Wunderground v.1.15,2013-02-02 16:26:00,
2013-02-02 08:31:00,49.6,34.1,30.22,East,90,1.0,-999.0,55,0.00,,,0.00,Wunderground v.1.15,2013-02-02 16:31:00,
2013-02-02 08:36:00,49.6,34.1,30.22,East,90,1.0,-999.0,55,0.00,,,0.00,Wunderground v.1.15,2013-02-02 16:36:00,
2013-02-02 08:41:00,49.6,34.1,30.22,East,90,1.0,-999.0,55,0.00,,,0.00,Wunderground v.1.15,2013-02-02 16:41:00,
2013-02-02 08:46:00,50.4,34.8,30.23,East,90,1.0,-999.0,55,0.00,,,0.00,Wunderground v.1.15,2013-02-02 16:46:00,
2013-02-02 08:51:00,50.4,34.8,30.23,East,90,1.0,-999.0,55,0.00,,,0.00,Wunderground v.1.15,2013-02-02 16:51:00,
2013-02-02 08:56:00,50.4,34.8,30.23,East,90,1.0,-999.0,55,0.00,,,0.00,Wunderground v.1.15,2013-02-02 16:56:00,
2013-02-02 09:01:00,50.4,34.8,30.23,East,90,1.0,-999.0,55,0.00,,,0.00,Wunderground v.1.15,2013-02-02 17:01:00,
2013-02-02 09:06:00,50.4,34.8,30.23,East,90,1.0,-999.0,55,0.00,,,0.00,Wunderground v.1.15,2013-02-02 17:06:00,
2013-02-02 09:11:00,50.4,34.8,30.23,East,90,1.0,-999.0,55,0.00,,,0.00,Wunderground v.1.15,2013-02-02 17:11:00,
2013-02-02 10:20:00,54.9,37.1,30.24,ESE,106,0.0,0.0,51,0.00,,,0.00,Wunderground v.1.15,2013-02-02 18:20:00,
2013-02-02 10:30:00,55.5,36.6,30.24,ESE,121,1.0,1.0,49,0.00,,,0.00,Wunderground v.1.15,2013-02-02 18:30:00,
2013-02-02 10:40:00,56.1,36.7,30.24,ESE,108,1.0,1.0,48,0.00,,,0.00,Wunderground v.1.15,2013-02-02 18:40:00,
2013-02-02 10:50:00,57.5,36.3,30.24,ESE,107,0.0,0.0,45,0.00,,,0.00,Wunderground v.1.15,2013-02-02 18:50:00,
2013-02-02 11:00:00,59.0,38.2,30.24,East,96,1.0,1.0,46,0.00,,,0.00,Wunderground v.1.15,2013-02-02 19:00:00,
2013-02-02 11:10:00,59.6,38.8,30.24,ENE,71,1.0,3.0,46,0.00,,,0.00,Wunderground v.1.15,2013-02-02 19:10:00,
2013-02-02 11:20:00,58.9,38.7,30.24,ESE,103,1.0,3.0,47,0.00,,,0.00,Wunderground v.1.15,2013-02-02 19:20:00,
2013-02-02 11:30:00,59.2,39.0,30.23,East,92,1.0,3.0,47,0.00,,,0.00,Wunderground v.1.15,2013-02-02 19:30:00,
2013-02-02 11:40:00,59.7,37.7,30.23,SE,142,1.0,1.0,44,0.00,,,0.00,Wunderground v.1.15,2013-02-02 19:40:00,
2013-02-02 11:50:00,60.7,34.3,30.23,SSW,201,0.0,3.0,37,0.00,,,0.00,Wunderground v.1.15,2013-02-02 19:50:00,
2013-02-02 12:05:00,61.0,39.5,30.23,NW,325,0.0,0.0,45,0.00,,,0.00,Wunderground v.1.15,2013-02-02 20:05:00,
2013-02-02 12:15:00,61.3,38.0,30.22,ESE,115,0.0,0.0,42,0.00,,,0.00,Wunderground v.1.15,2013-02-02 20:15:00,
2013-02-02 12:25:00,61.1,37.8,30.22,NE,54,1.0,1.0,42,0.00,,,0.00,Wunderground v.1.15,2013-02-02 20:25:00,
2013-02-02 12:35:00,61.5,38.2,30.22,ESE,115,1.0,1.0,42,0.00,,,0.00,Wunderground v.1.15,2013-02-02 20:35:00,
2013-02-02 12:45:00,61.6,38.9,30.21,SE,125,1.0,2.0,43,0.00,,,0.00,Wunderground v.1.15,2013-02-02 20:45:00,
2013-02-02 12:55:00,62.1,38.1,30.21,SSE,162,1.0,1.0,41,0.00,,,0.00,Wunderground v.1.15,2013-02-02 20:55:00,
2013-02-02 13:05:00,63.6,36.1,30.21,South,173,1.0,2.0,36,0.00,,,0.00,Wunderground v.1.15,2013-02-02 21:05:00,
2013-02-02 13:15:00,64.0,37.2,30.21,SE,124,2.0,2.0,37,0.00,,,0.00,Wunderground v.1.15,2013-02-02 21:15:00,
2013-02-02 13:25:00,64.1,36.6,30.20,NNE,32,2.0,2.0,36,0.00,,,0.00,Wunderground v.1.15,2013-02-02 21:25:00,
2013-02-02 13:35:00,63.6,33.9,30.20,East,100,2.0,3.0,33,0.00,,,0.00,Wunderground v.1.15,2013-02-02 21:35:00,
2013-02-02 13:45:00,64.7,35.7,30.19,South,174,2.0,4.0,34,0.00,,,0.00,Wunderground v.1.15,2013-02-02 21:45:00,
2013-02-02 13:50:00,64.6,37.0,30.19,SE,139,2.0,2.0,36,0.00,,,0.00,Wunderground v.1.15,2013-02-02 21:50:00,
2013-02-02 14:00:00,63.9,37.8,30.18,NE,40,2.0,2.0,38,0.00,,,0.00,Wunderground v.1.15,2013-02-02 22:00:00,
2013-02-02 14:10:00,64.3,36.8,30.18,ESE,103,2.0,2.0,36,0.00,,,0.00,Wunderground v.1.15,2013-02-02 22:10:00,
2013-02-02 14:20:00,64.6,36.3,30.18,South,169,2.0,2.0,35,0.00,,,0.00,Wunderground v.1.15,2013-02-02 22:20:00,
2013-02-02 14:30:00,64.4,36.8,30.18,NE,55,2.0,2.0,36,0.00,,,0.00,Wunderground v.1.15,2013-02-02 22:30:00,
2013-02-02 14:40:00,65.0,35.9,30.17,ESE,106,2.0,2.0,34,0.00,,,0.00,Wunderground v.1.15,2013-02-02 22:40:00,
2013-02-02 14:50:00,65.7,35.8,30.17,ENE,58,1.0,2.0,33,0.00,,,0.00,Wunderground v.1.15,2013-02-02 22:50:00,
2013-02-02 15:00:00,64.7,34.1,30.17,East,88,2.0,2.0,32,0.00,,,0.00,Wunderground v.1.15,2013-02-02 23:00:00,
2013-02-02 15:10:00,65.2,35.4,30.17,SSE,166,1.0,1.0,33,0.00,,,0.00,Wunderground v.1.15,2013-02-02 23:10:00,
2013-02-02 15:20:00,65.7,35.8,30.17,SE,133,1.0,2.0,33,0.00,,,0.00,Wunderground v.1.15,2013-02-02 23:20:00,
2013-02-02 15:30:00,64.8,41.2,30.17,South,186,2.0,2.0,42,0.00,,,0.00,Wunderground v.1.15,2013-02-02 23:30:00,
2013-02-02 15:40:00,64.2,43.5,30.17,South,170,1.0,2.0,47,0.00,,,0.00,Wunderground v.1.15,2013-02-02 23:40:00,
2013-02-02 15:50:00,63.7,42.5,30.17,SW,214,1.0,2.0,46,0.00,,,0.00,Wunderground v.1.15,2013-02-02 23:50:00,
2013-02-02 16:05:00,63.0,44.1,30.17,SW,215,0.0,0.0,50,0.00,,,0.00,Wunderground v.1.15,2013-02-03 00:05:00,
2013-02-02 16:10:00,62.6,44.2,30.17,SW,217,0.0,1.0,51,0.00,,,0.00,Wunderground v.1.15,2013-02-03 00:10:00,
2013-02-02 16:20:00,61.7,44.9,30.17,SW,224,1.0,1.0,54,0.00,,,0.00,Wunderground v.1.15,2013-02-03 00:20:00,
2013-02-02 16:30:00,60.9,45.6,30.17,WSW,241,0.0,1.0,57,0.00,,,0.00,Wunderground v.1.15,2013-02-03 00:30:00,
2013-02-02 16:40:00,60.0,45.6,30.17,WSW,246,1.0,2.0,59,0.00,,,0.00,Wunderground v.1.15,2013-02-03 00:40:00,
2013-02-02 16:50:00,59.2,45.8,30.17,WSW,243,1.0,1.0,61,0.00,,,0.00,Wunderground v.1.15,2013-02-03 00:50:00,
2013-02-02 17:00:00,58.7,46.1,30.17,WSW,252,1.0,1.0,63,0.00,,,0.00,Wunderground v.1.15,2013-02-03 01:00:00,
2013-02-02 17:10:00,58.1,46.0,30.17,WSW,252,0.0,5.0,64,0.00,,,0.00,Wunderground v.1.15,2013-02-03 01:10:00,
2013-02-02 17:20:00,57.6,45.9,30.17,WSW,252,0.0,5.0,65,0.00,,,0.00,Wunderground v.1.15,2013-02-03 01:20:00,
2013-02-02 17:30:00,57.1,45.8,30.17,WSW,252,0.0,5.0,66,0.00,,,0.00,Wunderground v.1.15,2013-02-03 01:30:00,
2013-02-02 17:40:00,56.5,44.9,30.17,WSW,252,0.0,5.0,65,0.00,,,0.00,Wunderground v.1.15,2013-02-03 01:40:00,
2013-02-02 17:50:00,56.4,44.8,30.17,WSW,252,0.0,5.0,65,0.00,,,0.00,Wunderground v.1.15,2013-02-03 01:50:00,
2013-02-02 18:00:00,56.5,44.5,30.17,WSW,252,0.0,5.0,64,0.00,,,0.00,Wunderground v.1.15,2013-02-03 02:00:00,
2013-02-02 18:10:00,56.4,45.2,30.17,WSW,252,0.0,5.0,66,0.00,,,0.00,Wunderground v.1.15,2013-02-03 02:10:00,
2013-02-02 18:20:00,56.3,44.7,30.17,WSW,252,0.0,5.0,65,0.00,,,0.00,Wunderground v.1.15,2013-02-03 02:20:00,
2013-02-02 18:30:00,56.3,45.1,30.17,North,6,0.0,5.0,66,0.00,,,0.00,Wunderground v.1.15,2013-02-03 02:30:00,
2013-02-02 18:40:00,55.7,45.3,30.17,North,6,0.0,5.0,68,0.00,,,0.00,Wunderground v.1.15,2013-02-03 02:40:00,
2013-02-02 18:50:00,54.9,45.3,30.17,North,6,0.0,5.0,70,0.00,,,0.00,Wunderground v.1.15,2013-02-03 02:50:00,
2013-02-02 19:00:00,54.3,44.3,30.17,North,6,0.0,5.0,69,0.00,,,0.00,Wunderground v.1.15,2013-02-03 03:00:00,
2013-02-02 19:10:00,54.0,44.1,30.18,North,6,0.0,5.0,69,0.00,,,0.00,Wunderground v.1.15,2013-02-03 03:10:00,
2013-02-02 19:20:00,53.8,45.0,30.18,North,6,0.0,5.0,72,0.00,,,0.00,Wunderground v.1.15,2013-02-03 03:20:00,
2013-02-02 19:30:00,53.9,45.1,30.18,North,6,0.0,5.0,72,0.00,,,0.00,Wunderground v.1.15,2013-02-03 03:30:00,
2013-02-02 19:40:00,53.4,44.2,30.18,North,6,0.0,5.0,71,0.00,,,0.00,Wunderground v.1.15,2013-02-03 03:40:00,
2013-02-02 19:50:00,52.9,43.7,30.18,NE,35,0.0,5.0,71,0.00,,,0.00,Wunderground v.1.15,2013-02-03 03:50:00,
2013-02-02 20:00:00,52.8,42.1,30.18,NE,36,0.0,5.0,67,0.00,,,0.00,Wunderground v.1.15,2013-02-03 04:00:00,
2013-02-02 20:05:00,52.8,41.7,30.18,NE,40,0.0,5.0,66,0.00,,,0.00,Wunderground v.1.15,2013-02-03 04:05:00,
2013-02-02 20:15:00,52.6,40.8,30.18,NE,40,0.0,5.0,64,0.00,,,0.00,Wunderground v.1.15,2013-02-03 04:15:00,
2013-02-02 20:25:00,52.4,40.2,30.18,NE,50,0.0,5.0,63,0.00,,,0.00,Wunderground v.1.15,2013-02-03 04:25:00,
2013-02-02 20:35:00,52.2,40.0,30.18,NE,56,0.0,5.0,63,0.00,,,0.00,Wunderground v.1.15,2013-02-03 04:35:00,
2013-02-02 20:40:00,52.1,39.9,30.18,NE,49,1.0,5.0,63,0.00,,,0.00,Wunderground v.1.15,2013-02-03 04:40:00,
2013-02-02 20:50:00,52.0,39.4,30.18,ENE,57,1.0,1.0,62,0.00,,,0.00,Wunderground v.1.15,2013-02-03 04:50:00,
2013-02-02 20:55:00,51.8,39.2,30.18,East,88,0.0,5.0,62,0.00,,,0.00,Wunderground v.1.15,2013-02-03 04:55:00,
2013-02-02 21:00:00,51.7,39.1,30.18,East,88,0.0,5.0,62,0.00,,,0.00,Wunderground v.1.15,2013-02-03 05:00:00,
2013-02-02 21:05:00,51.5,39.3,30.18,East,88,0.0,5.0,63,0.00,,,0.00,Wunderground v.1.15,2013-02-03 05:05:00,
2013-02-02 21:10:00,51.3,39.5,30.18,ENE,69,0.0,5.0,64,0.00,,,0.00,Wunderground v.1.15,2013-02-03 05:10:00,
2013-02-02 21:20:00,50.7,39.7,30.18,East,86,1.0,5.0,66,0.00,,,0.00,Wunderground v.1.15,2013-02-03 05:20:00,
2013-02-02 21:27:00,50.4,39.1,30.17,ENE,68,1.0,-999.0,65,0.00,,,0.00,Wunderground v.1.15,2013-02-03 05:27:00,
2013-02-02 21:30:00,50.4,39.1,30.17,ENE,60,2.0,5.0,65,0.00,,,0.00,Wunderground v.1.15,2013-02-03 05:30:00,
2013-02-02 21:32:00,50.4,39.1,30.17,ENE,68,1.0,-999.0,65,0.00,,,0.00,Wunderground v.1.15,2013-02-03 05:32:00,
2013-02-02 21:37:00,50.4,39.1,30.17,ENE,68,1.0,-999.0,65,0.00,,,0.00,Wunderground v.1.15,2013-02-03 05:37:00,
2013-02-02 21:42:00,50.4,39.1,30.17,ENE,68,1.0,-999.0,65,0.00,,,0.00,Wunderground v.1.15,2013-02-03 05:42:00,
2013-02-02 21:47:00,50.6,37.6,30.17,ENE,68,2.0,-999.0,61,0.00,,,0.00,Wunderground v.1.15,2013-02-03 05:47:00,
2013-02-02 21:52:00,50.6,37.6,30.17,ENE,68,2.0,-999.0,61,0.00,,,0.00,Wunderground v.1.15,2013-02-03 05:52:00,
2013-02-02 21:57:00,50.6,37.6,30.17,ENE,68,2.0,-999.0,61,0.00,,,0.00,Wunderground v.1.15,2013-02-03 05:57:00,
2013-02-02 22:02:00,50.6,37.6,30.17,ENE,68,2.0,-999.0,61,0.00,,,0.00,Wunderground v.1.15,2013-02-03 06:02:00,
2013-02-02 22:07:00,50.6,37.6,30.17,ENE,68,2.0,-999.0,61,0.00,,,0.00,Wunderground v.1.15,2013-02-03 06:07:00,
2013-02-02 22:12:00,50.6,37.6,30.17,ENE,68,2.0,-999.0,61,0.00,,,0.00,Wunderground v.1.15,2013-02-03 06:12:00,
2013-02-02 22:17:00,50.2,36.8,30.17,ENE,68,1.0,-999.0,60,0.00,,,0.00,Wunderground v.1.15,2013-02-03 06:17:00,
2013-02-02 22:22:00,50.2,36.8,30.17,ENE,68,1.0,-999.0,60,0.00,,,0.00,Wunderground v.1.15,2013-02-03 06:22:00,
2013-02-02 22:27:00,50.2,36.8,30.17,ENE,68,1.0,-999.0,60,0.00,,,0.00,Wunderground v.1.15,2013-02-03 06:27:00,
2013-02-02 22:32:00,50.2,36.8,30.17,ENE,68,1.0,-999.0,60,0.00,,,0.00,Wunderground v.1.15,2013-02-03 06:32:00,
2013-02-02 22:37:00,50.2,36.8,30.17,ENE,68,1.0,-999.0,60,0.00,,,0.00,Wunderground v.1.15,2013-02-03 06:37:00,
2013-02-02 22:42:00,50.2,36.8,30.17,ENE,68,1.0,-999.0,60,0.00,,,0.00,Wunderground v.1.15,2013-02-03 06:42:00,
2013-02-02 22:47:00,49.7,35.5,30.17,East,90,0.0,-999.0,58,0.00,,,0.00,Wunderground v.1.15,2013-02-03 06:47:00,
2013-02-02 22:52:00,49.7,35.5,30.17,East,90,0.0,-999.0,58,0.00,,,0.00,Wunderground v.1.15,2013-02-03 06:52:00,
2013-02-02 22:57:00,49.7,35.5,30.17,East,90,0.0,-999.0,58,0.00,,,0.00,Wunderground v.1.15,2013-02-03 06:57:00,
2013-02-02 23:02:00,49.7,35.5,30.17,East,90,0.0,-999.0,58,0.00,,,0.00,Wunderground v.1.15,2013-02-03 07:02:00,
2013-02-02 23:07:00,49.7,35.5,30.17,East,90,0.0,-999.0,58,0.00,,,0.00,Wunderground v.1.15,2013-02-03 07:07:00,
2013-02-02 23:12:00,49.7,35.5,30.17,East,90,0.0,-999.0,58,0.00,,,0.00,Wunderground v.1.15,2013-02-03 07:12:00,
2013-02-02 23:17:00,49.5,34.4,30.17,East,90,0.0,-999.0,56,0.00,,,0.00,Wunderground v.1.15,2013-02-03 07:17:00,
2013-02-02 23:22:00,49.5,34.4,30.17,East,90,0.0,-999.0,56,0.00,,,0.00,Wunderground v.1.15,2013-02-03 07:22:00,
2013-02-02 23:27:00,49.5,34.4,30.17,East,90,0.0,-999.0,56,0.00,,,0.00,Wunderground v.1.15,2013-02-03 07:27:00,
2013-02-02 23:32:00,49.5,34.4,30.17,East,90,0.0,-999.0,56,0.00,,,0.00,Wunderground v.1.15,2013-02-03 07:32:00,
2013-02-02 23:37:00,49.5,34.4,30.17,East,90,0.0,-999.0,56,0.00,,,0.00,Wunderground v.1.15,2013-02-03 07:37:00,
2013-02-02 23:42:00,49.5,34.4,30.17,East,90,0.0,-999.0,56,0.00,,,0.00,Wunderground v.1.15,2013-02-03 07:42:00,
2013-02-02 23:47:00,49.4,34.8,30.17,East,90,0.0,-999.0,57,0.00,,,0.00,Wunderground v.1.15,2013-02-03 07:47:00,
2013-02-02 23:52:00,49.4,34.8,30.17,East,90,0.0,-999.0,57,0.00,,,0.00,Wunderground v.1.15,2013-02-03 07:52:00,
2013-02-02 23:57:00,49.4,34.8,30.17,East,90,0.0,-999.0,57,0.00,,,0.00,Wunderground v.1.15,2013-02-03 07:57:00,